Time;durP1;ratioP1;P1;durP2;ratioP2;P2;SDS_P1;SDS_P2;PMS_P1;PMS_P2;Temp;Humidity;BMP_temperature;BMP_pressure;BME280_temperature;BME280_humidity;BME280_pressure;Samples;Min_cycle;Max_cycle;Signal;HPM_P1;HPM_P2
2022/06/17 00:00:51;;;;;;;;;;;13.90;99.90;;;;;;5003832;28;20390;-76
2022/06/17 00:03:17;;;;;;;;;;;13.90;99.90;;;;;;5004099;28;20032;-76
2022/06/17 00:05:43;;;;;;;;;;;13.90;99.90;;;;;;5006875;28;19928;-76
2022/06/17 00:08:30;;;;;;;;;;;13.90;99.90;;;;;;4994057;28;19929;-76
2022/06/17 00:10:56;;;;;;;;;;;13.80;99.90;;;;;;5004272;28;19940;-76
2022/06/17 00:13:23;;;;;;;;;;;13.80;99.90;;;;;;5006961;28;19930;-76
2022/06/17 00:15:49;;;;;;;;;;;13.80;99.90;;;;;;4972335;28;19936;-76
2022/06/17 00:18:15;;;;;;;;;;;13.80;99.90;;;;;;5003649;28;19929;-76
2022/06/17 00:20:42;;;;;;;;;;;13.80;99.90;;;;;;5001490;28;19933;-76
2022/06/17 00:23:12;;;;;;;;;;;13.80;99.90;;;;;;5004535;28;20213;-76
2022/06/17 00:25:38;;;;;;;;;;;13.80;99.90;;;;;;5007259;28;20493;-76
2022/06/17 00:28:09;;;;;;;;;;;13.80;99.90;;;;;;4993724;28;19933;-76
2022/06/17 00:30:34;;;;;;;;;;;13.70;99.90;;;;;;5005163;28;19987;-77
2022/06/17 00:33:01;;;;;;;;;;;13.70;99.90;;;;;;5006587;28;20016;-76
2022/06/17 00:35:29;;;;;;;;;;;13.60;99.90;;;;;;5008869;28;20032;-76
2022/06/17 00:37:55;;;;;;;;;;;13.70;99.90;;;;;;5007270;28;20055;-76
2022/06/17 00:40:22;;;;;;;;;;;13.60;99.90;;;;;;5006979;28;20290;-76
2022/06/17 00:42:50;;;;;;;;;;;13.40;99.90;;;;;;4999131;28;20150;-76
2022/06/17 00:45:35;;;;;;;;;;;13.50;99.90;;;;;;5005095;28;20394;-76
2022/06/17 00:48:01;;;;;;;;;;;13.60;99.90;;;;;;5006456;28;19933;-76
2022/06/17 00:50:46;;;;;;;;;;;13.50;99.90;;;;;;5009447;28;20673;-76
2022/06/17 00:53:16;;;;;;;;;;;13.50;99.90;;;;;;4988648;28;19967;-76
2022/06/17 00:55:54;;;;;;;;;;;13.50;99.90;;;;;;4989471;28;20012;-76
2022/06/17 00:58:49;;;;;;;;;;;13.50;99.90;;;;;;4994426;28;19936;-76
2022/06/17 01:01:14;;;;;;;;;;;13.50;99.90;;;;;;5002075;28;19929;-77
2022/06/17 01:03:40;;;;;;;;;;;13.60;99.90;;;;;;5010331;28;19940;-77
2022/06/17 01:06:11;;;;;;;;;;;13.40;99.90;;;;;;4992470;28;20695;-76
2022/06/17 01:11:41;;;;;;;;;;;13.50;99.90;;;;;;5013767;28;20771;-76
2022/06/17 01:14:09;;;;;;;;;;;13.40;99.90;;;;;;5014831;28;19929;-76
2022/06/17 01:16:36;;;;;;;;;;;13.40;99.90;;;;;;5010134;28;20262;-77
2022/06/17 01:19:04;;;;;;;;;;;13.40;99.90;;;;;;5007296;28;19956;-77
2022/06/17 01:21:35;;;;;;;;;;;13.30;99.90;;;;;;4990805;28;20035;-77
2022/06/17 01:24:01;;;;;;;;;;;13.30;99.90;;;;;;4997695;28;20688;-77
2022/06/17 01:26:27;;;;;;;;;;;13.30;99.90;;;;;;5008206;28;20035;-76
2022/06/17 01:28:53;;;;;;;;;;;13.40;99.90;;;;;;5007800;28;19974;-76
2022/06/17 01:31:18;;;;;;;;;;;13.50;99.90;;;;;;5008857;28;20437;-77
2022/06/17 01:33:44;;;;;;;;;;;13.40;99.90;;;;;;5007879;28;20019;-76
2022/06/17 01:36:13;;;;;;;;;;;13.30;99.90;;;;;;5007564;28;19929;-76
2022/06/17 01:38:41;;;;;;;;;;;13.20;99.90;;;;;;5012978;28;19925;-76
2022/06/17 01:41:07;;;;;;;;;;;13.30;99.90;;;;;;5018014;28;19943;-76
2022/06/17 01:43:48;;;;;;;;;;;13.30;99.90;;;;;;4980836;28;20459;-76
2022/06/17 01:46:16;;;;;;;;;;;13.20;99.90;;;;;;5029015;28;20112;-77
2022/06/17 01:48:44;;;;;;;;;;;13.10;99.90;;;;;;5029407;28;19929;-77
2022/06/17 01:51:11;;;;;;;;;;;12.90;99.90;;;;;;5004850;28;20740;-77
2022/06/17 01:53:39;;;;;;;;;;;13.00;99.90;;;;;;5027944;28;19928;-78
2022/06/17 01:56:08;;;;;;;;;;;13.10;99.90;;;;;;5028605;28;19929;-78
2022/06/17 01:58:40;;;;;;;;;;;13.10;99.90;;;;;;5026895;28;19945;-77
2022/06/17 02:01:06;;;;;;;;;;;13.10;99.90;;;;;;5026803;28;20484;-78
2022/06/17 02:03:34;;;;;;;;;;;13.10;99.90;;;;;;5011441;28;19964;-78
2022/06/17 02:06:05;;;;;;;;;;;13.10;99.90;;;;;;5027755;28;19928;-78
2022/06/17 02:08:31;;;;;;;;;;;13.20;99.90;;;;;;5028591;28;19943;-77
2022/06/17 02:10:56;;;;;;;;;;;13.30;99.90;;;;;;5028806;28;19932;-78
2022/06/17 02:13:22;;;;;;;;;;;13.30;99.90;;;;;;5026461;28;19932;-78
2022/06/17 02:15:48;;;;;;;;;;;13.30;99.90;;;;;;5026687;28;20300;-77
2022/06/17 02:18:16;;;;;;;;;;;13.40;99.90;;;;;;5011528;28;19968;-77
2022/06/17 02:20:42;;;;;;;;;;;13.50;99.90;;;;;;5027797;28;19978;-77
2022/06/17 02:23:07;;;;;;;;;;;13.60;99.90;;;;;;5011011;28;19929;-77
2022/06/17 02:25:39;;;;;;;;;;;13.60;99.90;;;;;;5029629;28;19932;-78
2022/06/17 02:28:05;;;;;;;;;;;13.70;99.90;;;;;;5031095;28;19995;-77
2022/06/17 02:30:31;;;;;;;;;;;13.80;99.90;;;;;;5028457;28;20048;-77
2022/06/17 02:32:58;;;;;;;;;;;13.70;99.90;;;;;;5010487;28;19924;-77
2022/06/17 02:35:36;;;;;;;;;;;13.70;99.90;;;;;;5027853;28;19939;-77
2022/06/17 02:38:02;;;;;;;;;;;13.70;99.90;;;;;;5027219;28;20760;-77
2022/06/17 02:40:28;;;;;;;;;;;13.60;99.90;;;;;;5010384;28;19979;-78
2022/06/17 02:42:54;;;;;;;;;;;13.40;99.90;;;;;;5025491;28;19936;-77
2022/06/17 02:45:23;;;;;;;;;;;13.40;99.90;;;;;;5014063;28;19933;-77
2022/06/17 02:47:49;;;;;;;;;;;13.40;99.90;;;;;;5012008;28;20000;-76
2022/06/17 02:50:17;;;;;;;;;;;13.30;99.90;;;;;;4996921;28;20008;-77
2022/06/17 02:52:43;;;;;;;;;;;13.20;99.90;;;;;;5010307;28;19932;-77
2022/06/17 02:55:15;;;;;;;;;;;13.10;99.90;;;;;;5015080;28;19954;-77
2022/06/17 02:57:41;;;;;;;;;;;13.00;99.90;;;;;;5011944;28;19955;-77
2022/06/17 03:00:15;;;;;;;;;;;12.90;99.90;;;;;;5012312;28;19933;-77
2022/06/17 03:02:46;;;;;;;;;;;12.90;99.90;;;;;;4979457;28;19933;-77
2022/06/17 03:05:17;;;;;;;;;;;12.90;99.90;;;;;;5017560;28;19998;-77
2022/06/17 03:07:43;;;;;;;;;;;13.00;99.90;;;;;;5006521;28;19932;-77
2022/06/17 03:10:19;;;;;;;;;;;13.20;99.90;;;;;;5026982;28;20404;-78
2022/06/17 03:12:47;;;;;;;;;;;13.40;99.90;;;;;;5017388;28;19932;-77
2022/06/17 03:15:15;;;;;;;;;;;13.40;99.90;;;;;;5009932;28;19990;-77
2022/06/17 03:17:41;;;;;;;;;;;13.30;99.90;;;;;;5027083;28;20047;-77
2022/06/17 03:20:09;;;;;;;;;;;13.40;99.90;;;;;;5002670;28;19991;-77
2022/06/17 03:22:35;;;;;;;;;;;13.40;99.90;;;;;;5025538;28;19935;-77
2022/06/17 03:25:07;;;;;;;;;;;13.40;99.90;;;;;;5028464;28;20911;-77
2022/06/17 03:27:38;;;;;;;;;;;13.20;99.90;;;;;;5010067;28;19939;-77
2022/06/17 03:30:05;;;;;;;;;;;13.20;99.90;;;;;;4984510;28;19959;-77
2022/06/17 03:32:34;;;;;;;;;;;13.00;99.90;;;;;;5027876;28;19933;-77
2022/06/17 03:35:00;;;;;;;;;;;13.10;99.90;;;;;;5026153;28;21100;-77
2022/06/17 03:37:39;;;;;;;;;;;13.20;99.90;;;;;;5010118;28;19939;-76
2022/06/17 03:40:16;;;;;;;;;;;13.30;99.90;;;;;;5026205;28;19936;-77
2022/06/17 03:43:02;;;;;;;;;;;13.40;99.90;;;;;;5029589;28;19939;-76
2022/06/17 03:45:31;;;;;;;;;;;13.40;99.90;;;;;;4984040;28;19929;-76
2022/06/17 03:48:00;;;;;;;;;;;13.50;99.90;;;;;;5025582;28;19979;-76
2022/06/17 03:50:33;;;;;;;;;;;13.60;99.90;;;;;;5000359;28;19932;-77
2022/06/17 03:53:03;;;;;;;;;;;13.70;99.90;;;;;;5025987;28;19978;-77
2022/06/17 03:55:29;;;;;;;;;;;13.70;99.90;;;;;;4997042;28;20838;-77
2022/06/17 03:57:56;;;;;;;;;;;13.70;99.90;;;;;;5026302;28;19928;-77
2022/06/17 04:00:31;;;;;;;;;;;13.70;99.90;;;;;;5010340;28;19943;-77
2022/06/17 04:02:59;;;;;;;;;;;13.80;99.90;;;;;;5018795;28;19976;-77
2022/06/17 04:05:26;;;;;;;;;;;13.80;99.90;;;;;;5011883;28;19940;-78
2022/06/17 04:07:51;;;;;;;;;;;13.90;99.90;;;;;;4986538;28;19929;-77
2022/06/17 04:10:26;;;;;;;;;;;13.90;99.90;;;;;;5029533;28;20514;-77
2022/06/17 04:12:52;;;;;;;;;;;13.90;99.90;;;;;;5022142;28;20422;-78
2022/06/17 04:15:33;;;;;;;;;;;13.90;99.90;;;;;;5027647;28;19951;-76
2022/06/17 04:17:58;;;;;;;;;;;13.90;99.90;;;;;;5010906;28;19933;-77
2022/06/17 04:20:47;;;;;;;;;;;13.90;99.90;;;;;;5010900;28;19933;-77
2022/06/17 04:23:15;;;;;;;;;;;14.00;99.90;;;;;;5014007;28;19933;-77
2022/06/17 04:25:43;;;;;;;;;;;14.00;99.90;;;;;;4998651;28;20470;-77
2022/06/17 04:28:10;;;;;;;;;;;13.90;99.90;;;;;;5027557;28;20271;-77
2022/06/17 04:30:40;;;;;;;;;;;14.00;99.90;;;;;;5009194;28;20015;-77
2022/06/17 04:33:11;;;;;;;;;;;14.20;99.90;;;;;;5025562;28;20384;-77
2022/06/17 04:35:37;;;;;;;;;;;14.30;99.90;;;;;;5011931;28;19928;-77
2022/06/17 04:38:03;;;;;;;;;;;14.60;99.90;;;;;;5000125;28;20717;-77
2022/06/17 04:40:44;;;;;;;;;;;14.80;99.90;;;;;;5016897;28;19948;-76
2022/06/17 04:43:16;;;;;;;;;;;15.50;99.90;;;;;;5018363;28;19936;-76
2022/06/17 04:45:51;;;;;;;;;;;17.40;99.90;;;;;;5017112;28;19929;-77
2022/06/17 04:48:17;;;;;;;;;;;16.90;99.90;;;;;;5018798;28;19955;-77
2022/06/17 04:50:43;;;;;;;;;;;16.30;99.90;;;;;;5017701;28;19929;-77
2022/06/17 04:53:08;;;;;;;;;;;16.00;99.90;;;;;;5014107;28;20247;-77
2022/06/17 04:55:36;;;;;;;;;;;15.90;99.90;;;;;;5004202;28;20277;-77
2022/06/17 04:58:02;;;;;;;;;;;15.90;99.90;;;;;;5006068;28;19936;-77
2022/06/17 05:00:28;;;;;;;;;;;15.90;99.90;;;;;;5011096;28;19968;-77
2022/06/17 05:02:54;;;;;;;;;;;15.90;99.90;;;;;;5009279;28;20066;-78
2022/06/17 05:05:26;;;;;;;;;;;16.10;99.90;;;;;;5009253;28;20316;-77
2022/06/17 05:07:53;;;;;;;;;;;16.00;99.90;;;;;;5000832;28;19932;-77
2022/06/17 05:10:22;;;;;;;;;;;16.10;99.90;;;;;;4994014;28;19986;-78
2022/06/17 05:12:51;;;;;;;;;;;16.30;99.90;;;;;;5017872;28;19924;-77
2022/06/17 05:15:17;;;;;;;;;;;16.40;99.90;;;;;;5007591;28;20801;-78
2022/06/17 05:17:43;;;;;;;;;;;16.40;99.90;;;;;;5015938;28;19925;-77
2022/06/17 05:20:16;;;;;;;;;;;16.40;99.90;;;;;;4996178;28;19983;-76
2022/06/17 05:23:02;;;;;;;;;;;16.40;99.90;;;;;;5008422;28;19929;-77
2022/06/17 05:25:29;;;;;;;;;;;16.40;99.90;;;;;;5004833;28;20062;-77
2022/06/17 05:27:55;;;;;;;;;;;16.50;99.90;;;;;;5004338;28;19928;-77
2022/06/17 05:30:21;;;;;;;;;;;16.50;99.90;;;;;;5009811;28;19929;-77
2022/06/17 05:32:48;;;;;;;;;;;16.60;99.90;;;;;;5023837;28;19940;-77
2022/06/17 05:35:14;;;;;;;;;;;16.70;99.90;;;;;;5008722;28;19929;-77
2022/06/17 05:37:39;;;;;;;;;;;16.80;99.90;;;;;;5006285;28;20178;-77
2022/06/17 05:40:08;;;;;;;;;;;16.80;99.90;;;;;;5023377;28;19929;-78
2022/06/17 05:42:37;;;;;;;;;;;16.80;99.90;;;;;;5004978;28;19970;-78
2022/06/17 05:45:03;;;;;;;;;;;16.90;99.90;;;;;;5012745;28;19936;-78
2022/06/17 05:47:29;;;;;;;;;;;16.90;99.90;;;;;;5017534;28;20521;-78
2022/06/17 05:49:55;;;;;;;;;;;16.90;99.90;;;;;;5001766;28;21013;-77
2022/06/17 05:52:20;;;;;;;;;;;17.00;99.90;;;;;;5019440;28;20811;-77
2022/06/17 05:54:46;;;;;;;;;;;17.10;99.90;;;;;;5001412;28;19956;-77
2022/06/17 05:57:12;;;;;;;;;;;17.10;99.90;;;;;;5006220;28;19925;-77
2022/06/17 05:59:37;;;;;;;;;;;17.10;99.90;;;;;;5023623;28;19994;-77
2022/06/17 06:02:03;;;;;;;;;;;17.10;99.90;;;;;;5022883;28;20637;-77
2022/06/17 06:04:31;;;;;;;;;;;17.20;99.90;;;;;;5027669;28;19929;-78
2022/06/17 06:06:57;;;;;;;;;;;17.30;99.90;;;;;;5021300;28;20293;-78
2022/06/17 06:09:22;;;;;;;;;;;17.30;99.90;;;;;;5022505;28;19929;-78
2022/06/17 06:11:48;;;;;;;;;;;17.40;99.90;;;;;;5031241;28;20685;-78
2022/06/17 06:14:13;;;;;;;;;;;17.50;99.90;;;;;;5023508;28;20019;-78
2022/06/17 06:16:39;;;;;;;;;;;17.50;99.90;;;;;;5016586;28;20410;-77
2022/06/17 06:19:05;;;;;;;;;;;17.50;99.90;;;;;;5030644;28;19935;-77
2022/06/17 06:21:31;;;;;;;;;;;17.50;99.90;;;;;;5025959;28;19928;-78
2022/06/17 06:23:56;;;;;;;;;;;17.70;99.90;;;;;;5033676;28;19986;-78
2022/06/17 06:26:23;;;;;;;;;;;17.80;99.90;;;;;;5022979;28;19933;-78
2022/06/17 06:28:48;;;;;;;;;;;17.90;99.90;;;;;;5013996;28;19929;-78
2022/06/17 06:31:17;;;;;;;;;;;18.00;99.90;;;;;;5015045;28;19955;-78
2022/06/17 06:33:42;;;;;;;;;;;18.00;99.90;;;;;;5029174;28;19935;-78
2022/06/17 06:36:08;;;;;;;;;;;18.00;99.90;;;;;;5033920;28;19929;-78
2022/06/17 06:38:34;;;;;;;;;;;18.10;99.90;;;;;;5028812;28;19929;-78
2022/06/17 06:41:01;;;;;;;;;;;18.10;99.90;;;;;;5016046;28;19936;-78
2022/06/17 06:43:26;;;;;;;;;;;18.10;99.90;;;;;;5014454;28;20098;-78
2022/06/17 06:45:52;;;;;;;;;;;18.10;99.90;;;;;;5013211;28;20485;-78
2022/06/17 06:48:20;;;;;;;;;;;18.10;99.90;;;;;;5032160;28;19982;-77
2022/06/17 06:50:45;;;;;;;;;;;18.20;99.90;;;;;;5032036;28;20035;-77
2022/06/17 06:53:11;;;;;;;;;;;18.20;99.90;;;;;;5015354;28;19997;-78
2022/06/17 06:55:37;;;;;;;;;;;18.20;99.90;;;;;;5032129;28;20735;-78
2022/06/17 06:58:06;;;;;;;;;;;18.20;99.90;;;;;;5030585;28;20361;-77
2022/06/17 07:00:33;;;;;;;;;;;18.30;99.90;;;;;;5032330;28;19998;-78
2022/06/17 07:02:59;;;;;;;;;;;18.30;99.90;;;;;;5030893;28;19932;-78
2022/06/17 07:05:25;;;;;;;;;;;18.50;99.90;;;;;;5032426;28;19936;-78
2022/06/17 07:07:50;;;;;;;;;;;18.70;99.90;;;;;;5031379;28;19929;-77
2022/06/17 07:10:20;;;;;;;;;;;19.10;99.90;;;;;;5010200;28;19932;-77
2022/06/17 07:12:46;;;;;;;;;;;19.40;99.90;;;;;;5030910;28;19929;-77
2022/06/17 07:15:12;;;;;;;;;;;19.60;99.90;;;;;;5029737;28;19936;-77
2022/06/17 07:17:38;;;;;;;;;;;19.80;99.90;;;;;;5015212;28;20019;-78
2022/06/17 07:20:04;;;;;;;;;;;20.40;99.90;;;;;;5012426;28;19994;-77
2022/06/17 07:22:31;;;;;;;;;;;20.80;99.90;;;;;;5029086;28;20016;-77
2022/06/17 07:24:56;;;;;;;;;;;21.00;99.90;;;;;;5031442;28;20002;-78
2022/06/17 07:27:22;;;;;;;;;;;21.00;99.90;;;;;;5011339;28;19983;-77
2022/06/17 07:29:48;;;;;;;;;;;21.00;99.90;;;;;;5029595;28;20776;-76
2022/06/17 07:32:13;;;;;;;;;;;21.10;99.90;;;;;;5009953;28;19947;-76
2022/06/17 07:34:39;;;;;;;;;;;21.50;99.90;;;;;;5009432;28;19960;-77
2022/06/17 07:39:55;;;;;;;;;;;22.00;99.90;;;;;;5013930;28;20842;-78
2022/06/17 07:42:22;;;;;;;;;;;22.10;99.90;;;;;;5015084;28;19929;-77
2022/06/17 07:44:47;;;;;;;;;;;22.50;99.90;;;;;;5030559;28;19987;-79
2022/06/17 07:47:14;;;;;;;;;;;22.80;99.90;;;;;;5000803;28;19928;-80
2022/06/17 07:49:40;;;;;;;;;;;23.30;99.90;;;;;;5029549;28;20661;-79
2022/06/17 07:52:12;;;;;;;;;;;23.20;99.90;;;;;;5011906;28;19929;-79
2022/06/17 07:54:37;;;;;;;;;;;23.40;99.90;;;;;;5031676;28;19928;-79
2022/06/17 07:57:03;;;;;;;;;;;23.80;99.90;;;;;;5030508;28;20984;-79
2022/06/17 07:59:29;;;;;;;;;;;24.20;99.90;;;;;;5012705;28;19929;-78
2022/06/17 08:01:54;;;;;;;;;;;24.60;99.90;;;;;;5013214;28;20012;-78
2022/06/17 08:04:20;;;;;;;;;;;24.30;99.90;;;;;;4980915;28;19940;-78
2022/06/17 08:06:52;;;;;;;;;;;24.00;99.90;;;;;;5008332;28;20008;-78
2022/06/17 08:09:18;;;;;;;;;;;24.00;99.90;;;;;;5005284;28;19929;-77
2022/06/17 08:11:43;;;;;;;;;;;24.30;99.90;;;;;;5008601;28;19937;-77
2022/06/17 08:14:10;;;;;;;;;;;24.70;99.90;;;;;;5030140;28;19948;-77
2022/06/17 08:16:36;;;;;;;;;;;24.60;99.90;;;;;;5014488;28;20082;-79
2022/06/17 08:19:04;;;;;;;;;;;25.20;99.90;;;;;;5029814;28;19936;-77
2022/06/17 08:21:30;;;;;;;;;;;25.20;99.90;;;;;;5030923;28;19936;-78
2022/06/17 08:23:56;;;;;;;;;;;24.80;99.90;;;;;;5013094;28;20023;-78
2022/06/17 08:26:22;;;;;;;;;;;24.60;99.90;;;;;;5032648;28;19990;-78
2022/06/17 08:28:47;;;;;;;;;;;25.00;99.90;;;;;;5029809;28;19936;-78
2022/06/17 08:31:13;;;;;;;;;;;25.30;99.90;;;;;;5012850;28;19929;-78
2022/06/17 08:33:39;;;;;;;;;;;25.40;99.90;;;;;;5029653;28;20366;-77
2022/06/17 08:36:06;;;;;;;;;;;25.40;99.90;;;;;;5026404;28;19932;-79
2022/06/17 08:38:34;;;;;;;;;;;25.20;99.90;;;;;;5027421;28;19936;-80
2022/06/17 08:41:04;;;;;;;;;;;25.20;99.90;;;;;;5027829;28;20459;-79
2022/06/17 08:43:49;;;;;;;;;;;25.20;99.90;;;;;;5030099;28;19933;-79
2022/06/17 08:46:17;;;;;;;;;;;25.40;99.90;;;;;;5029373;28;19994;-78
2022/06/17 08:49:01;;;;;;;;;;;25.30;99.90;;;;;;5029558;28;19929;-78
2022/06/17 08:51:39;;;;;;;;;;;25.10;99.90;;;;;;5030794;28;19933;-78
2022/06/17 08:54:13;;;;;;;;;;;25.10;99.90;;;;;;5010371;28;19929;-79
2022/06/17 08:56:42;;;;;;;;;;;24.80;99.90;;;;;;5012740;28;19929;-79
2022/06/17 08:59:09;;;;;;;;;;;24.80;99.90;;;;;;5028282;28;19932;-78
2022/06/17 09:01:35;;;;;;;;;;;24.80;99.90;;;;;;5013514;28;19929;-79
2022/06/17 09:04:00;;;;;;;;;;;25.00;99.90;;;;;;5010195;28;19998;-78
2022/06/17 09:06:29;;;;;;;;;;;24.90;99.90;;;;;;5012975;28;19956;-77
2022/06/17 09:09:06;;;;;;;;;;;25.10;99.90;;;;;;5030164;28;19929;-79
2022/06/17 09:11:35;;;;;;;;;;;25.10;99.90;;;;;;5011028;28;20405;-79
2022/06/17 09:14:04;;;;;;;;;;;24.90;99.90;;;;;;5011394;28;20659;-81
2022/06/17 09:16:30;;;;;;;;;;;24.70;99.90;;;;;;5030817;28;19974;-77
2022/06/17 09:19:00;;;;;;;;;;;24.80;99.90;;;;;;5029280;28;20301;-79
2022/06/17 09:21:35;;;;;;;;;;;24.60;99.90;;;;;;5030277;28;19936;-78
2022/06/17 09:24:08;;;;;;;;;;;24.60;99.90;;;;;;5015299;28;19925;-79
2022/06/17 09:26:38;;;;;;;;;;;24.30;99.90;;;;;;5015238;28;19928;-81
2022/06/17 09:29:10;;;;;;;;;;;24.30;99.90;;;;;;5015640;28;20067;-79
2022/06/17 09:31:38;;;;;;;;;;;24.40;99.90;;;;;;5032174;28;19928;-79
2022/06/17 09:34:13;;;;;;;;;;;24.50;99.90;;;;;;5014931;28;20293;-79
2022/06/17 09:36:41;;;;;;;;;;;24.50;99.90;;;;;;4986833;28;20326;-79
2022/06/17 09:39:13;;;;;;;;;;;24.40;99.90;;;;;;5003321;28;20732;-78
2022/06/17 09:41:46;;;;;;;;;;;24.50;99.90;;;;;;5033765;28;19971;-79
2022/06/17 09:44:14;;;;;;;;;;;24.60;99.90;;;;;;5021790;28;19940;-79
2022/06/17 09:46:43;;;;;;;;;;;24.50;99.90;;;;;;5035624;28;19929;-78
2022/06/17 09:49:15;;;;;;;;;;;24.60;99.90;;;;;;5016257;28;19937;-79
2022/06/17 09:51:43;;;;;;;;;;;24.80;99.90;;;;;;5031335;28;19928;-80
2022/06/17 09:54:18;;;;;;;;;;;25.10;99.90;;;;;;5035065;28;19990;-79
2022/06/17 09:56:44;;;;;;;;;;;25.40;99.90;;;;;;5032788;28;20017;-79
2022/06/17 09:59:16;;;;;;;;;;;25.50;99.90;;;;;;5015236;28;20413;-81
2022/06/17 10:01:42;;;;;;;;;;;25.50;99.90;;;;;;5016431;28;19952;-79
2022/06/17 10:04:09;;;;;;;;;;;25.70;99.90;;;;;;5030611;28;19929;-78
2022/06/17 10:06:54;;;;;;;;;;;25.50;99.90;;;;;;5015823;28;19936;-79
2022/06/17 10:09:31;;;;;;;;;;;25.60;99.90;;;;;;5030834;28;19929;-80
2022/06/17 10:12:02;;;;;;;;;;;25.80;99.90;;;;;;5031082;28;19933;-79
2022/06/17 10:14:48;;;;;;;;;;;25.90;99.90;;;;;;5033860;28;19933;-79
2022/06/17 10:20:10;;;;;;;;;;;26.30;99.90;;;;;;5015008;28;19929;-80
2022/06/17 10:22:38;;;;;;;;;;;25.90;99.30;;;;;;5031489;28;19932;-79
2022/06/17 10:25:23;;;;;;;;;;;25.80;99.30;;;;;;5032649;28;20723;-79
2022/06/17 10:27:55;;;;;;;;;;;25.70;99.80;;;;;;5028369;28;20588;-80
2022/06/17 10:30:33;;;;;;;;;;;25.90;99.90;;;;;;5030181;28;19982;-80
2022/06/17 10:32:59;;;;;;;;;;;25.90;99.90;;;;;;5029993;28;20016;-79
2022/06/17 10:35:27;;;;;;;;;;;26.10;99.90;;;;;;5032952;28;20006;-80
2022/06/17 10:37:55;;;;;;;;;;;26.00;98.90;;;;;;5029769;28;19928;-79
2022/06/17 10:40:22;;;;;;;;;;;25.90;99.60;;;;;;5031655;28;20389;-79
2022/06/17 10:42:49;;;;;;;;;;;26.10;99.90;;;;;;5032174;28;19932;-79
2022/06/17 10:45:15;;;;;;;;;;;26.10;98.50;;;;;;5031767;28;19928;-82
2022/06/17 10:47:51;;;;;;;;;;;26.10;98.50;;;;;;5030580;28;19928;-81
2022/06/17 10:50:20;;;;;;;;;;;26.10;98.70;;;;;;5030974;28;19979;-80
2022/06/17 10:52:48;;;;;;;;;;;26.20;98.20;;;;;;5031715;28;19935;-78
2022/06/17 10:55:17;;;;;;;;;;;26.30;97.60;;;;;;5032059;28;19932;-79
2022/06/17 10:58:02;;;;;;;;;;;26.50;98.20;;;;;;5013840;28;19929;-79
2022/06/17 11:00:28;;;;;;;;;;;26.30;96.50;;;;;;5031895;28;20748;-79
2022/06/17 11:02:54;;;;;;;;;;;26.40;97.60;;;;;;5031559;28;19929;-79
2022/06/17 11:05:34;;;;;;;;;;;26.30;96.30;;;;;;5030055;28;20615;-81
2022/06/17 11:08:00;;;;;;;;;;;26.30;96.80;;;;;;5017007;28;20353;-79
2022/06/17 11:10:29;;;;;;;;;;;26.30;97.00;;;;;;5032161;28;20411;-79
2022/06/17 11:12:58;;;;;;;;;;;26.50;97.50;;;;;;5030303;28;19951;-79
2022/06/17 11:15:26;;;;;;;;;;;26.50;97.40;;;;;;5032312;28;19928;-80
2022/06/17 11:17:53;;;;;;;;;;;26.40;96.80;;;;;;5013070;28;19928;-80
2022/06/17 11:20:21;;;;;;;;;;;26.50;95.50;;;;;;5007966;28;20430;-81
2022/06/17 11:22:54;;;;;;;;;;;26.50;96.80;;;;;;5024505;28;19929;-80
2022/06/17 11:25:29;;;;;;;;;;;26.50;96.90;;;;;;5029087;28;19990;-79
2022/06/17 11:27:57;;;;;;;;;;;26.50;96.60;;;;;;5031176;28;20632;-80
2022/06/17 11:30:30;;;;;;;;;;;26.70;97.60;;;;;;5030253;28;20673;-79
2022/06/17 11:32:57;;;;;;;;;;;26.80;98.20;;;;;;5029091;28;19986;-79
2022/06/17 11:35:32;;;;;;;;;;;26.80;98.80;;;;;;5033481;28;20348;-79
2022/06/17 11:37:58;;;;;;;;;;;26.60;96.60;;;;;;5031210;28;20389;-79
2022/06/17 11:40:25;;;;;;;;;;;26.50;95.60;;;;;;5031285;28;19929;-81
2022/06/17 11:42:55;;;;;;;;;;;26.30;95.70;;;;;;5027859;28;20696;-78
2022/06/17 11:45:30;;;;;;;;;;;26.40;95.90;;;;;;5014463;28;19929;-78
2022/06/17 11:47:59;;;;;;;;;;;26.50;97.10;;;;;;5014494;28;19940;-77
2022/06/17 11:50:28;;;;;;;;;;;26.70;98.30;;;;;;5003561;28;19933;-79
2022/06/17 11:52:59;;;;;;;;;;;26.70;97.50;;;;;;5014138;28;21909;-78
2022/06/17 11:55:29;;;;;;;;;;;26.50;95.30;;;;;;5032500;28;20026;-78
2022/06/17 11:57:55;;;;;;;;;;;26.50;96.00;;;;;;5013345;28;19935;-79
2022/06/17 12:00:25;;;;;;;;;;;26.50;95.80;;;;;;5013456;28;19929;-78
2022/06/17 12:02:58;;;;;;;;;;;26.50;96.00;;;;;;5012885;28;19925;-78
2022/06/17 12:05:26;;;;;;;;;;;26.50;95.60;;;;;;5013976;28;19964;-79
2022/06/17 12:07:55;;;;;;;;;;;26.50;95.30;;;;;;5029176;28;20386;-79
2022/06/17 12:10:21;;;;;;;;;;;26.80;95.00;;;;;;5029387;28;19935;-78
2022/06/17 12:12:48;;;;;;;;;;;27.10;97.00;;;;;;5031838;28;19960;-77
2022/06/17 12:15:13;;;;;;;;;;;27.50;96.60;;;;;;5012723;28;19928;-79
2022/06/17 12:17:39;;;;;;;;;;;27.80;96.70;;;;;;5011404;28;19936;-78
2022/06/17 12:20:18;;;;;;;;;;;28.00;95.10;;;;;;5030455;28;20378;-79
2022/06/17 12:22:48;;;;;;;;;;;27.60;93.90;;;;;;4999283;28;19937;-78
2022/06/17 12:25:22;;;;;;;;;;;28.60;96.70;;;;;;5030246;28;19940;-78
2022/06/17 12:27:51;;;;;;;;;;;29.20;93.80;;;;;;5029101;28;19951;-78
2022/06/17 12:30:17;;;;;;;;;;;29.40;91.70;;;;;;5028619;28;19933;-79
2022/06/17 12:32:50;;;;;;;;;;;29.50;92.60;;;;;;5028450;28;19936;-82
2022/06/17 12:35:16;;;;;;;;;;;29.70;92.20;;;;;;5030501;28;19940;-78
2022/06/17 12:37:47;;;;;;;;;;;29.00;88.50;;;;;;5026812;28;19929;-79
2022/06/17 12:40:19;;;;;;;;;;;29.30;86.30;;;;;;5031165;28;20019;-79
2022/06/17 12:42:45;;;;;;;;;;;29.60;88.10;;;;;;5031238;28;19929;-79
2022/06/17 12:45:21;;;;;;;;;;;30.00;87.10;;;;;;5029307;28;19977;-78
2022/06/17 12:47:46;;;;;;;;;;;30.00;87.80;;;;;;5029654;28;20083;-76
2022/06/17 12:53:36;;;;;;;;;;;29.90;81.80;;;;;;4974708;28;20344;-79
2022/06/17 12:56:14;;;;;;;;;;;29.90;84.50;;;;;;5025781;28;19936;-78
2022/06/17 12:58:39;;;;;;;;;;;29.90;81.10;;;;;;5033659;28;20193;-79
2022/06/17 13:01:11;;;;;;;;;;;29.20;80.80;;;;;;5034145;28;20404;-79
2022/06/17 13:03:46;;;;;;;;;;;29.00;81.50;;;;;;5016145;28;19936;-78
2022/06/17 13:06:16;;;;;;;;;;;28.80;81.40;;;;;;5016409;28;20448;-80
2022/06/17 13:08:44;;;;;;;;;;;28.70;79.80;;;;;;5032883;28;19928;-78
2022/06/17 13:11:22;;;;;;;;;;;28.40;79.00;;;;;;5032564;28;20838;-78
2022/06/17 13:13:48;;;;;;;;;;;28.30;80.60;;;;;;5033757;28;19929;-78
2022/06/17 13:16:20;;;;;;;;;;;28.90;80.00;;;;;;5017689;28;19991;-78
2022/06/17 13:19:00;;;;;;;;;;;29.20;78.70;;;;;;5033871;28;20442;-78
2022/06/17 13:21:26;;;;;;;;;;;29.40;80.60;;;;;;5017118;28;19971;-79
2022/06/17 13:23:54;;;;;;;;;;;29.90;79.30;;;;;;5017334;28;20039;-78
2022/06/17 13:26:23;;;;;;;;;;;30.10;80.30;;;;;;5034173;28;19929;-80
2022/06/17 13:29:08;;;;;;;;;;;29.80;78.70;;;;;;5016471;28;20287;-79
2022/06/17 13:31:50;;;;;;;;;;;30.00;79.50;;;;;;5034748;28;19936;-78
2022/06/17 13:34:19;;;;;;;;;;;29.70;80.30;;;;;;5033922;28;19936;-78
2022/06/17 13:36:58;;;;;;;;;;;29.60;78.00;;;;;;5033529;28;20386;-78
2022/06/17 13:39:26;;;;;;;;;;;29.50;78.70;;;;;;5031497;28;19936;-77
2022/06/17 13:41:55;;;;;;;;;;;29.80;76.50;;;;;;5033456;28;19929;-79
2022/06/17 13:44:20;;;;;;;;;;;29.70;75.90;;;;;;5031468;28;19974;-79
2022/06/17 13:47:01;;;;;;;;;;;29.80;78.40;;;;;;5032797;28;21056;-79
2022/06/17 13:49:45;;;;;;;;;;;29.40;75.10;;;;;;5016010;28;19928;-80
2022/06/17 13:52:17;;;;;;;;;;;29.20;77.40;;;;;;5015952;28;20472;-78
2022/06/17 13:54:50;;;;;;;;;;;28.90;75.80;;;;;;5034908;28;19982;-78
2022/06/17 13:57:22;;;;;;;;;;;28.90;75.40;;;;;;5014091;28;19929;-79
2022/06/17 13:59:50;;;;;;;;;;;29.20;78.40;;;;;;5032506;28;19933;-78
2022/06/17 14:02:17;;;;;;;;;;;29.30;76.90;;;;;;5031008;28;19982;-78
2022/06/17 14:05:01;;;;;;;;;;;29.60;76.50;;;;;;5032579;28;19964;-79
2022/06/17 14:07:55;;;;;;;;;;;29.80;79.90;;;;;;5014431;28;19929;-79
2022/06/17 14:10:29;;;;;;;;;;;29.70;75.20;;;;;;4998761;28;20014;-78
2022/06/17 14:12:55;;;;;;;;;;;29.80;77.30;;;;;;5030956;28;19932;-79
2022/06/17 14:15:32;;;;;;;;;;;29.90;76.30;;;;;;5014560;28;19964;-79
2022/06/17 14:17:59;;;;;;;;;;;30.10;75.20;;;;;;5017313;28;20436;-78
2022/06/17 14:20:25;;;;;;;;;;;30.00;76.80;;;;;;5032756;28;20567;-79
2022/06/17 14:22:59;;;;;;;;;;;30.10;77.60;;;;;;5008889;28;19928;-78
2022/06/17 14:25:27;;;;;;;;;;;30.00;76.50;;;;;;5009832;28;20597;-79
2022/06/17 14:27:58;;;;;;;;;;;30.00;73.70;;;;;;5010006;28;19969;-79
2022/06/17 14:30:25;;;;;;;;;;;29.90;75.10;;;;;;5004958;28;20398;-78
2022/06/17 14:32:51;;;;;;;;;;;29.90;76.50;;;;;;4993189;28;19952;-76
2022/06/17 14:35:27;;;;;;;;;;;30.10;79.40;;;;;;5007351;28;20394;-79
2022/06/17 14:38:16;;;;;;;;;;;29.80;76.20;;;;;;4990728;28;19998;-80
2022/06/17 14:43:30;;;;;;;;;;;29.20;76.90;;;;;;5007131;28;20337;-80